aviador You're here:

YCIN Decoded Metar

CURTIN/DERBY in _UNIDENTIFIED
Report Time2017-09-23 20:00:00
UTC Time2017-09-23 20:10:09
Flight Rules vfr VFR
Wind230° at 06 kt
W.Decomp.*RWY 29: 2.8 kt HW 5.3 kt LCW
W.Rank230° ranks 18
Current wind is above 230° avg. (5.6)
Visibility9999 m
Phenomena:N/A
Clouds:N/A
Expected CloudBase > 2,000 ft AGL from Temp-Dew spread
CeilingNone
Temp19°C (ISA +5)
Dew Point14°C (73% RH)
AAT18.1°C
QNH1010 hPa
Density Alt1,155 ft
Elevation299 ft
Report Wrong Elevation
Raw Report
METAR YCIN 232000Z AUTO 23006KT 9999 // NCD 19/14 Q1010=

Extra information for YCIN:More info

Metar Taf Metar & Taf Last 4 Metars F.Rules Stats Wind Profile Meteogram Temp Stats Airport Information Weather charts Add Link Nearby VenuesMetar ALERT Operation Metar Decoded Social comments